Tropical Cyclones
[Index]
Main Index Home Page Stock Weather Photos Extreme Storms Discussion Storm News and Storm Chasing Reports Tropical Cyclones / Hurricanes / Typhoons Weather Data and Links Wild Fires / Bushfires Weather Observation Techniques Weather Picture Catalogue Tornado Pictures and Reports Stock Video Footage and DVDs for sale
Season 2007-2008 Tropical Cyclone ROSIE Track Map
Season 2007-2008 Summaries (Operational Data): [AU] [SIO] [SPAC] [SH]
<<- Previous TC | 2007-2008 Season | Next TC ->>

click for intensity scale information  Lat/long Grid: Show Hide

 Date Labels: Show Hide

Operational Tropical Cyclone Data : JTWC Advisories | BoM Warnings

Name: ROSIE
Number: 0828

20 Apr 2008 21:00 UTC to 25 Apr 2008 00:00 UTC

    date/time    lat    long     hPa   cat  kts
2008-04-20 21    8.5    98.7                             
2008-04-21 00    8.7    99.5                             
2008-04-21 06    9.1   100.5                             
2008-04-21 12    9.1   102.4     998         30          
2008-04-21 18    9.5   103.7     994         30          
2008-04-22 00   10.5   104.8     988    1    40          
2008-04-22 06   11.3   105.2     980    2    50          
2008-04-22 12   10.8   105.7     984    1    45          
2008-04-22 18   10.7   106.3     988    1    40          
2008-04-23 00   11.1   106.8     988    1    40          
2008-04-23 06   11.4   106.3     990    1    35          
2008-04-23 12   11.6   106.2     994         30          
2008-04-23 14   12.8   106.6     994         30          
2008-04-23 18   12.6   106.2     994         30          
2008-04-24 00   14.2   106.0     994         30          
2008-04-24 06   15.0   105.9     994         30          
2008-04-24 12   15.7   105.9     994         30          
2008-04-24 18   17.0   105.5     996         30          
2008-04-25 00   17.9   105.1     998         30          
Winds are 10-min average.

Tropical cyclone tracks developed by Michael Bath using operational warnings and advisories and Google Maps.


[Australian Severe Weather index] [Copyright Notice] [Email Contacts] [Search This Site] [Privacy Policy]
Document: tropical_cyclone_rosie.htm Updated: 2 May 2017